Time;durP1;ratioP1;P1;durP2;ratioP2;P2;SDS_P1;SDS_P2;PMS_P1;PMS_P2;Temp;Humidity;BMP_temperature;BMP_pressure;BME280_temperature;BME280_humidity;BME280_pressure;Samples;Min_cycle;Max_cycle;Signal;HPM_P1;HPM_P2
2024/02/11 00:01:19;;;;;;;46.83;23.02;;;;;;;4.83;100.00;98472.48;1726344;83;25596;-48
2024/02/11 00:03:45;;;;;;;50.03;24.45;;;;;;;4.80;100.00;98467.78;1726358;83;27514;-47
2024/02/11 00:06:14;;;;;;;47.85;23.12;;;;;;;4.78;100.00;98474.55;1726088;83;25553;-47
2024/02/11 00:08:42;;;;;;;42.25;22.42;;;;;;;4.76;100.00;98479.43;1726219;83;25458;-51
2024/02/11 00:11:12;;;;;;;48.92;23.25;;;;;;;4.74;100.00;98485.66;1721188;82;25641;-51
2024/02/11 00:13:37;;;;;;;48.90;24.63;;;;;;;4.74;100.00;98489.12;1708762;83;25443;-52
2024/02/11 00:16:09;;;;;;;51.37;24.25;;;;;;;4.73;100.00;98492.89;1718736;83;28353;-51
2024/02/11 00:18:37;;;;;;;48.25;24.23;;;;;;;4.73;100.00;98493.45;1708609;83;25745;-51
2024/02/11 00:21:07;;;;;;;;;;;;;;;4.72;100.00;98491.89;1721299;83;25399;-50
2024/02/11 00:23:37;;;;;;;41.83;20.68;;;;;;;4.72;100.00;98489.98;1718748;83;25963;-50
2024/02/11 00:26:06;;;;;;;;;;;;;;;4.68;100.00;98497.87;1711326;84;25656;-49
2024/02/11 00:28:32;;;;;;;39.50;21.07;;;;;;;4.67;100.00;98490.14;1709001;83;27324;-49
2024/02/11 00:31:03;;;;;;;43.98;22.25;;;;;;;4.65;100.00;98502.50;1718689;83;25617;-51
2024/02/11 00:33:32;;;;;;;46.20;22.25;;;;;;;4.66;100.00;98500.60;1708768;84;25402;-52
2024/02/11 00:36:01;;;;;;;46.73;22.65;;;;;;;4.65;100.00;98508.42;1718846;83;25913;-50
2024/02/11 00:38:30;;;;;;;46.25;22.25;;;;;;;4.64;100.00;98502.25;1708864;84;33417;-53
2024/02/11 00:40:57;;;;;;;46.75;23.95;;;;;;;4.62;100.00;98495.09;1718860;83;27365;-51
2024/02/11 00:43:28;;;;;;;51.68;24.10;;;;;;;4.60;100.00;98506.67;1708772;84;25985;-52
2024/02/11 00:45:57;;;;;;;44.42;22.50;;;;;;;4.59;100.00;98503.74;1718689;83;25406;-50
2024/02/11 00:48:25;;;;;;;45.83;22.73;;;;;;;4.59;100.00;98500.28;1708812;84;26614;-52
2024/02/11 00:50:52;;;;;;;44.67;22.95;;;;;;;4.59;100.00;98509.66;1718743;83;25457;-49
2024/02/11 00:53:18;;;;;;;43.60;21.85;;;;;;;4.56;100.00;98506.26;1708819;84;27314;-50
2024/02/11 00:55:45;;;;;;;47.33;23.20;;;;;;;4.56;100.00;98508.94;1718574;83;25964;-51
2024/02/11 00:58:11;;;;;;;46.13;22.25;;;;;;;4.55;100.00;98507.37;1708678;84;25597;-48
2024/02/11 01:00:39;;;;;;;48.65;24.20;;;;;;;4.54;100.00;98501.21;1717554;83;25631;-49
2024/02/11 01:03:05;;;;;;;46.92;22.60;;;;;;;4.55;100.00;98504.70;1708494;84;25619;-49
2024/02/11 01:05:36;;;;;;;47.33;23.22;;;;;;;4.55;100.00;98500.69;1718615;83;27350;-49
2024/02/11 01:08:05;;;;;;;43.65;22.73;;;;;;;4.54;100.00;98505.23;1708342;83;25483;-49
2024/02/11 01:10:31;;;;;;;44.00;22.75;;;;;;;4.52;100.00;98503.98;1709852;81;25622;-49
2024/02/11 01:13:04;;;;;;;43.33;22.55;;;;;;;4.52;100.00;98502.64;1713265;83;25953;-50
2024/02/11 01:15:35;;;;;;;43.20;21.75;;;;;;;4.51;100.00;98497.81;1713404;83;25632;-49
2024/02/11 01:18:02;;;;;;;45.88;22.73;;;;;;;4.54;100.00;98499.87;1713326;83;27345;-52
2024/02/11 01:20:28;;;;;;;41.40;22.35;;;;;;;4.55;100.00;98493.43;1713203;83;25453;-49
2024/02/11 01:22:54;;;;;;;43.55;22.15;;;;;;;4.55;100.00;98498.01;1713322;83;25641;-49
2024/02/11 01:25:21;;;;;;;43.17;23.30;;;;;;;4.52;100.00;98494.61;1713216;83;25969;-49
2024/02/11 01:27:51;;;;;;;42.85;21.10;;;;;;;4.52;100.00;98488.70;1713344;83;25381;-49
2024/02/11 01:30:21;;;;;;;42.00;21.48;;;;;;;4.53;100.00;98486.80;1713261;83;27338;-49
2024/02/11 01:32:48;;;;;;;45.58;23.35;;;;;;;4.51;100.00;98484.43;1713181;83;25687;-49
2024/02/11 01:35:18;;;;;;;40.10;21.30;;;;;;;4.50;100.00;98480.19;1713210;83;25578;-49
2024/02/11 01:37:45;;;;;;;45.85;23.40;;;;;;;4.54;100.00;98470.42;1713315;83;26580;-48
2024/02/11 01:40:19;;;;;;;43.48;20.15;;;;;;;4.54;100.00;98470.42;1713232;83;25382;-49
2024/02/11 01:42:49;;;;;;;42.73;21.50;;;;;;;4.55;100.00;98479.27;1713170;83;27314;-49
2024/02/11 01:45:18;;;;;;;45.67;21.23;;;;;;;4.54;100.00;98490.50;1713181;83;25657;-49
2024/02/11 01:47:45;;;;;;;44.03;20.88;;;;;;;4.54;100.00;98487.83;1713283;83;34264;-50
2024/02/11 01:50:20;;;;;;;46.53;21.37;;;;;;;4.52;100.00;98485.23;1713106;83;25623;-49
2024/02/11 01:52:52;;;;;;;38.90;20.37;;;;;;;4.51;100.00;98499.71;1713242;83;25566;-49
2024/02/11 01:55:19;;;;;;;41.88;21.52;;;;;;;4.47;100.00;98496.31;1713214;83;27937;-50
2024/02/11 01:57:50;;;;;;;53.13;23.55;;;;;;;4.47;100.00;98493.64;1713110;83;26066;-48
2024/02/11 02:00:20;;;;;;;45.12;22.52;;;;;;;4.47;100.00;98492.30;1713224;83;25451;-48
2024/02/11 02:02:50;;;;;;;46.37;22.13;;;;;;;4.46;100.00;98486.72;1713145;83;26347;-48
2024/02/11 02:05:17;;;;;;;47.10;22.58;;;;;;;4.45;100.00;98477.10;1713273;83;25434;-48
2024/02/11 02:07:43;;;;;;;50.10;23.60;;;;;;;4.44;100.00;98468.85;1713135;83;27111;-48
2024/02/11 02:10:14;;;;;;;42.90;22.27;;;;;;;4.43;100.00;98474.52;1713167;83;25601;-48
2024/02/11 02:12:42;;;;;;;44.73;22.60;;;;;;;4.43;100.00;98479.87;1744457;82;25634;-48
2024/02/11 02:15:12;;;;;;;39.88;21.20;;;;;;;4.43;100.00;98475.85;1710824;83;25942;-48
2024/02/11 02:17:46;;;;;;;46.10;20.55;;;;;;;4.42;100.00;98473.70;1710864;83;25461;-48
2024/02/11 02:20:14;;;;;;;50.03;22.20;;;;;;;4.41;100.00;98476.16;1710900;83;27375;-48
2024/02/11 02:22:41;;;;;;;43.02;21.62;;;;;;;4.40;100.00;98470.56;1710782;83;25557;-48
2024/02/11 02:25:10;;;;;;;44.05;21.85;;;;;;;4.39;100.00;98472.20;1710915;83;25607;-49
2024/02/11 02:27:37;;;;;;;38.75;20.08;;;;;;;4.37;100.00;98469.84;1710803;83;25628;-48
2024/02/11 02:30:09;;;;;;;38.42;21.17;;;;;;;4.35;100.00;98465.36;1710918;83;25485;-49
2024/02/11 02:32:36;;;;;;;43.25;21.45;;;;;;;4.36;100.00;98462.93;1710904;83;27331;-49
2024/02/11 02:35:07;;;;;;;42.27;20.52;;;;;;;4.38;100.00;98460.72;1710761;83;25571;-49
2024/02/11 02:37:33;;;;;;;40.15;20.80;;;;;;;4.37;100.00;98453.78;1710906;83;25422;-50
2024/02/11 02:39:59;;;;;;;41.98;21.73;;;;;;;4.38;100.00;98458.60;1710783;83;25623;-49
2024/02/11 02:42:28;;;;;;;40.20;20.82;;;;;;;4.39;100.00;98461.50;1710992;83;25414;-49
2024/02/11 02:44:54;;;;;;;44.45;22.27;;;;;;;4.37;100.00;98455.11;1710915;83;27324;-50
2024/02/11 02:47:23;;;;;;;43.50;22.42;;;;;;;4.37;100.00;98451.66;1710751;83;25624;-49
2024/02/11 02:49:53;;;;;;;40.30;21.20;;;;;;;4.38;100.00;98456.70;1710977;83;34842;-48
2024/02/11 02:52:19;;;;;;;41.05;20.77;;;;;;;4.37;100.00;98456.45;1710984;83;25582;-51
2024/02/11 02:54:46;;;;;;;39.98;20.08;;;;;;;4.38;100.00;98454.59;1710934;83;25556;-48
2024/02/11 02:57:15;;;;;;;40.05;20.82;;;;;;;4.36;100.00;98457.58;1711000;83;27329;-48
2024/02/11 02:59:42;;;;;;;40.38;21.60;;;;;;;4.37;100.00;98453.00;1710889;83;25622;-51
2024/02/11 03:02:08;;;;;;;36.75;20.00;;;;;;;4.36;100.00;98456.23;1710805;83;25623;-48
2024/02/11 03:04:38;;;;;;;39.00;20.85;;;;;;;4.35;100.00;98448.52;1710776;83;26175;-48
2024/02/11 03:07:06;;;;;;;40.28;21.23;;;;;;;4.34;100.00;98454.40;1710941;83;25441;-48
2024/02/11 03:09:38;;;;;;;40.50;19.80;;;;;;;4.33;100.00;98454.17;1710871;83;27336;-49
2024/02/11 03:12:08;;;;;;;40.95;21.52;;;;;;;4.31;100.00;98455.05;1712167;82;25988;-49
2024/02/11 03:14:34;;;;;;;37.23;19.23;;;;;;;4.32;100.00;98457.16;1713475;83;25466;-49
2024/02/11 03:17:03;;;;;;;39.85;20.90;;;;;;;4.30;100.00;98454.23;1713399;83;26144;-48
2024/02/11 03:19:29;;;;;;;40.23;20.52;;;;;;;4.30;100.00;98451.56;1713465;83;25535;-49
2024/02/11 03:21:55;;;;;;;38.45;20.90;;;;;;;4.30;100.00;98451.56;1713363;83;28331;-49
2024/02/11 03:24:23;;;;;;;37.05;20.95;;;;;;;4.31;100.00;98455.05;1713306;83;25619;-51
2024/02/11 03:26:50;;;;;;;37.28;20.80;;;;;;;4.32;100.00;98456.60;1713357;83;25580;-48
2024/02/11 03:29:19;;;;;;;37.53;20.32;;;;;;;4.32;100.00;98459.28;1713425;83;25640;-50
2024/02/11 03:31:48;;;;;;;40.30;21.37;;;;;;;4.33;100.00;98462.77;1713598;83;25615;-48
2024/02/11 03:34:14;;;;;;;36.65;18.95;;;;;;;4.34;100.00;98456.30;1713566;83;28396;-49
2024/02/11 03:36:42;;;;;;;36.15;20.40;;;;;;;4.34;100.00;98457.62;1713497;83;25484;-48
2024/02/11 03:39:11;;;;;;;34.65;19.17;;;;;;;4.33;100.00;98463.55;1713566;83;25609;-50
2024/02/11 03:41:40;;;;;;;35.10;20.27;;;;;;;4.33;100.00;98465.44;1713569;83;25621;-49
2024/02/11 03:44:07;;;;;;;34.13;19.35;;;;;;;4.33;100.00;98469.45;1713579;83;25475;-49
2024/02/11 03:46:35;;;;;;;35.38;20.02;;;;;;;4.31;100.00;98467.09;1713504;83;27244;-48
2024/02/11 03:49:03;;;;;;;41.92;22.05;;;;;;;4.29;100.00;98470.61;1713514;83;25395;-49
2024/02/11 03:51:33;;;;;;;37.30;19.87;;;;;;;4.29;100.00;98469.27;1713547;83;25687;-49
2024/02/11 03:54:03;;;;;;;34.88;20.32;;;;;;;4.30;100.00;98468.17;1713573;83;25998;-49
2024/02/11 03:56:34;;;;;;;37.98;19.27;;;;;;;4.30;100.00;98473.53;1713565;83;25388;-49
2024/02/11 03:58:59;;;;;;;36.58;20.27;;;;;;;4.32;100.00;98475.90;1713505;82;27549;-50
2024/02/11 04:01:27;;;;;;;32.35;19.07;;;;;;;4.32;100.00;98474.56;1713545;83;25444;-49
2024/02/11 04:03:55;;;;;;;37.35;20.02;;;;;;;4.31;100.00;98477.80;1713519;83;25548;-49
2024/02/11 04:06:21;;;;;;;34.67;19.37;;;;;;;4.30;100.00;98477.55;1713491;83;25382;-49
2024/02/11 04:08:49;;;;;;;36.40;19.23;;;;;;;4.30;100.00;98476.20;1713542;82;25536;-49
2024/02/11 04:11:17;;;;;;;37.03;19.27;;;;;;;4.29;100.00;98469.27;1713364;83;27316;-49
2024/02/11 04:13:44;;;;;;;35.52;20.32;;;;;;;4.30;100.00;98468.17;1713196;83;25532;-50
2024/02/11 04:16:15;;;;;;;36.33;20.57;;;;;;;4.30;100.00;98469.52;1713240;83;25446;-48
2024/02/11 04:18:45;;;;;;;35.52;20.15;;;;;;;4.30;100.00;98473.53;1713091;82;25643;-48
2024/02/11 04:21:15;;;;;;;34.13;20.08;;;;;;;4.28;100.00;98470.38;1713345;83;25243;-50
2024/02/11 04:23:46;;;;;;;33.73;20.32;;;;;;;4.27;100.00;98466.12;1712861;82;27991;-50
2024/02/11 04:26:17;;;;;;;34.15;19.00;;;;;;;4.27;100.00;98466.92;1713279;83;25624;-49
2024/02/11 04:28:47;;;;;;;38.30;20.57;;;;;;;4.27;100.00;98464.78;1713296;83;25480;-50
2024/02/11 04:31:19;;;;;;;35.90;19.90;;;;;;;4.26;100.00;98460.55;1713278;83;25626;-49
2024/02/11 04:33:51;;;;;;;35.45;19.80;;;;;;;4.23;100.00;98457.92;1713285;83;25628;-50
2024/02/11 04:36:18;;;;;;;36.30;20.48;;;;;;;4.24;100.00;98459.52;1713319;83;27373;-50
2024/02/11 04:38:47;;;;;;;36.53;20.50;;;;;;;4.25;100.00;98461.08;1713210;83;25530;-48
2024/02/11 04:41:13;;;;;;;34.75;20.17;;;;;;;4.25;100.00;98455.72;1713199;83;25430;-48
2024/02/11 04:43:44;;;;;;;37.55;20.45;;;;;;;4.26;100.00;98448.50;1713249;83;25618;-49
2024/02/11 04:46:11;;;;;;;35.63;19.98;;;;;;;4.25;100.00;98442.90;1713056;82;25406;-52
2024/02/11 04:48:39;;;;;;;35.43;20.52;;;;;;;4.24;100.00;98446.13;1713210;83;27334;-48
2024/02/11 04:51:07;;;;;;;34.33;19.77;;;;;;;4.23;100.00;98441.87;1713138;82;25788;-51
2024/02/11 04:53:33;;;;;;;34.78;20.37;;;;;;;4.23;100.00;98441.09;1713317;83;25550;-49
2024/02/11 04:56:00;;;;;;;33.70;20.17;;;;;;;4.24;100.00;98440.78;1713192;83;25730;-48
2024/02/11 04:58:30;;;;;;;37.65;20.90;;;;;;;4.24;100.00;98435.95;1713294;83;25600;-48
2024/02/11 05:00:54;;;;;;;36.28;20.17;;;;;;;4.24;100.00;98433.28;1712701;82;27048;-50
2024/02/11 05:03:23;;;;;;;36.73;19.62;;;;;;;4.24;100.00;98434.09;1713214;82;25638;-49
2024/02/11 05:05:52;;;;;;;38.63;20.32;;;;;;;4.25;100.00;98421.48;1713344;83;25589;-49
2024/02/11 05:08:22;;;;;;;37.15;20.50;;;;;;;4.25;100.00;98418.81;1713186;83;26595;-49
2024/02/11 05:10:51;;;;;;;36.25;20.85;;;;;;;4.26;100.00;98425.75;1713293;83;25646;-49
2024/02/11 05:13:23;;;;;;;37.40;21.17;;;;;;;4.27;100.00;98420.09;1717894;82;27815;-49
2024/02/11 05:15:50;;;;;;;36.48;20.32;;;;;;;4.27;100.00;98417.94;1754694;81;25613;-49
2024/02/11 05:18:18;;;;;;;32.60;20.02;;;;;;;4.28;100.00;98420.87;1718628;83;25555;-51
2024/02/11 05:20:46;;;;;;;35.92;21.02;;;;;;;4.29;100.00;98420.56;1754771;81;25621;-50
2024/02/11 05:23:12;;;;;;;36.85;21.07;;;;;;;4.28;100.00;98413.62;1718629;83;25495;-50
2024/02/11 05:25:45;;;;;;;35.83;21.12;;;;;;;4.29;100.00;98421.09;1754878;81;27311;-49
2024/02/11 05:28:19;;;;;;;34.48;20.43;;;;;;;4.28;100.00;98423.55;1718556;83;25490;-52
2024/02/11 05:30:52;;;;;;;31.50;19.70;;;;;;;4.29;100.00;98427.25;1754841;81;25463;-51
2024/02/11 05:33:20;;;;;;;33.53;20.15;;;;;;;4.28;100.00;98425.66;1718514;83;26685;-52
2024/02/11 05:35:50;;;;;;;36.48;21.55;;;;;;;4.29;100.00;98425.91;1754902;81;25562;-50
2024/02/11 05:38:24;;;;;;;35.15;20.65;;;;;;;4.29;100.00;98433.94;1718682;83;27199;-49
2024/02/11 05:40:57;;;;;;;34.13;19.57;;;;;;;4.30;100.00;98432.05;1754833;81;25570;-50
2024/02/11 05:43:22;;;;;;;33.13;19.85;;;;;;;4.28;100.00;98429.67;1718558;83;25391;-50
2024/02/11 05:45:50;;;;;;;38.98;20.30;;;;;;;4.29;100.00;98435.81;1754898;81;25641;-51
2024/02/11 05:48:18;;;;;;;34.60;20.37;;;;;;;4.32;100.00;98435.19;1718644;83;25575;-50
2024/02/11 05:50:46;;;;;;;33.35;20.75;;;;;;;4.32;100.00;98435.19;1754730;81;27357;-53
2024/02/11 05:53:15;;;;;;;37.65;21.30;;;;;;;4.32;100.00;98434.41;1718490;83;25497;-51
2024/02/11 05:55:42;;;;;;;34.95;21.20;;;;;;;4.29;100.00;98436.62;1754866;81;25489;-51
2024/02/11 05:58:09;;;;;;;35.80;20.85;;;;;;;4.31;100.00;98441.66;1718570;83;25950;-52
2024/02/11 06:00:42;;;;;;;36.05;21.50;;;;;;;4.30;100.00;98439.52;1754854;81;25414;-50
2024/02/11 06:03:09;;;;;;;35.52;20.62;;;;;;;4.32;100.00;98437.87;1718595;83;29487;-50
2024/02/11 06:05:36;;;;;;;33.15;20.85;;;;;;;4.32;100.00;98443.22;1754743;81;25850;-50
2024/02/11 06:08:09;;;;;;;31.20;20.02;;;;;;;4.32;100.00;98437.09;1718578;83;25438;-50
2024/02/11 06:10:36;;;;;;;35.83;21.10;;;;;;;4.31;100.00;98437.64;1754830;81;25489;-50
2024/02/11 06:13:09;;;;;;;39.92;20.43;;;;;;;4.30;100.00;98436.84;1718416;83;25619;-53
2024/02/11 06:15:37;;;;;;;33.13;19.42;;;;;;;4.30;100.00;98447.55;1708726;84;27204;-51
2024/02/11 06:18:03;;;;;;;38.95;23.47;;;;;;;4.31;100.00;98438.98;1717632;83;25741;-50
2024/02/11 06:20:32;;;;;;;45.12;25.30;;;;;;;4.31;100.00;98440.33;1708612;84;25766;-49
2024/02/11 06:23:00;;;;;;;48.95;27.87;;;;;;;4.31;100.00;98436.31;1718472;83;26031;-49
2024/02/11 06:25:28;;;;;;;36.95;23.10;;;;;;;4.33;100.00;98436.78;1708641;84;25557;-48
2024/02/11 06:27:54;;;;;;;38.88;23.38;;;;;;;4.33;100.00;98435.44;1718598;83;27379;-48
2024/02/11 06:30:23;;;;;;;35.65;20.88;;;;;;;4.35;100.00;98435.91;1708475;84;25408;-48
2024/02/11 06:32:55;;;;;;;35.75;22.07;;;;;;;4.35;100.00;98435.12;1718517;83;25391;-47
2024/02/11 06:35:23;;;;;;;38.70;22.67;;;;;;;4.34;100.00;98436.22;1708601;84;25668;-52
2024/02/11 06:37:51;;;;;;;34.10;20.85;;;;;;;4.36;100.00;98436.69;1718554;83;25392;-48
2024/02/11 06:40:25;;;;;;;39.38;22.67;;;;;;;4.36;100.00;98432.67;1708562;84;27351;-49
2024/02/11 06:42:52;;;;;;;36.38;22.35;;;;;;;4.38;100.00;98433.95;1718496;83;25536;-49
2024/02/11 06:45:23;;;;;;;38.95;23.80;;;;;;;4.39;100.00;98439.55;1708506;84;25549;-49
2024/02/11 06:47:52;;;;;;;38.48;21.60;;;;;;;4.42;100.00;98436.23;1718505;82;25720;-49
2024/02/11 06:50:20;;;;;;;36.58;21.40;;;;;;;4.43;100.00;98427.11;1708527;84;25446;-50
2024/02/11 06:52:50;;;;;;;37.15;22.40;;;;;;;4.46;100.00;98431.03;1718539;83;28557;-50
2024/02/11 06:55:22;;;;;;;38.73;22.37;;;;;;;4.48;100.00;98428.30;1708471;84;25616;-50
2024/02/11 06:57:51;;;;;;;40.30;21.50;;;;;;;4.51;100.00;98435.45;1718568;83;25623;-49
2024/02/11 07:00:18;;;;;;;36.20;22.25;;;;;;;4.53;100.00;98432.72;1708512;84;25576;-49
2024/02/11 07:02:52;;;;;;;35.83;23.30;;;;;;;4.56;100.00;98433.96;1708583;84;25403;-49
2024/02/11 07:05:15;;;;;;;36.80;21.02;;;;;;;4.58;100.00;98433.09;1717360;83;28327;-49
2024/02/11 07:07:44;;;;;;;37.78;22.75;;;;;;;4.60;100.00;98432.25;1708450;84;26038;-50
2024/02/11 07:10:13;;;;;;;37.85;22.45;;;;;;;4.64;100.00;98435.30;1718488;83;25604;-49
2024/02/11 07:12:42;;;;;;;37.25;22.20;;;;;;;4.65;100.00;98426.17;1722106;81;25667;-48
2024/02/11 07:15:14;;;;;;;37.48;22.58;;;;;;;4.67;100.00;98432.00;1713350;83;25567;-52
2024/02/11 07:17:44;;;;;;;37.67;23.38;;;;;;;4.69;100.00;98426.33;1713472;83;27679;-52
2024/02/11 07:20:16;;;;;;;36.28;21.80;;;;;;;4.71;100.00;98423.34;1713347;83;25579;-49
2024/02/11 07:22:45;;;;;;;35.63;23.27;;;;;;;4.71;100.00;98421.44;1713420;83;25450;-49
2024/02/11 07:25:18;;;;;;;36.35;21.40;;;;;;;4.72;100.00;98418.23;1713455;83;25504;-49
2024/02/11 07:27:46;;;;;;;35.23;21.97;;;;;;;4.75;100.00;98414.90;1713474;83;25441;-51
2024/02/11 07:30:15;;;;;;;38.23;22.58;;;;;;;4.77;100.00;98414.83;1713431;83;27346;-49
2024/02/11 07:32:44;;;;;;;38.02;22.45;;;;;;;4.80;100.00;98418.76;1713351;83;25667;-50
2024/02/11 07:35:15;;;;;;;39.78;22.82;;;;;;;4.82;100.00;98418.69;1713418;83;25536;-49
2024/02/11 07:37:43;;;;;;;38.50;22.65;;;;;;;4.85;100.00;98418.59;1713381;83;25626;-48
2024/02/11 07:40:16;;;;;;;33.95;23.12;;;;;;;4.90;100.00;98414.98;1713403;83;25478;-49
2024/02/11 07:42:42;;;;;;;37.90;23.27;;;;;;;4.95;100.00;98414.81;1713542;83;27271;-50
2024/02/11 07:45:14;;;;;;;36.80;22.20;;;;;;;4.95;100.00;98414.25;1713398;83;25544;-49
2024/02/11 07:47:49;;;;;;;38.33;22.75;;;;;;;5.00;100.00;98418.11;1713513;83;25442;-49
2024/02/11 07:50:18;;;;;;;39.48;22.40;;;;;;;5.03;100.00;98417.48;1713395;83;25699;-49
2024/02/11 07:52:47;;;;;;;36.93;21.75;;;;;;;5.07;100.00;98411.48;1713403;83;25618;-48
2024/02/11 07:55:13;;;;;;;41.05;24.20;;;;;;;5.09;100.00;98405.25;1713355;83;27712;-50
2024/02/11 07:57:39;;;;;;;40.17;24.20;;;;;;;5.10;100.00;98410.30;1713272;83;25530;-48
2024/02/11 08:00:12;;;;;;;38.48;23.45;;;;;;;5.15;100.00;98412.81;1713348;83;25537;-48
2024/02/11 08:02:39;;;;;;;37.35;22.00;;;;;;;5.18;100.00;98412.73;1713375;83;25610;-48
2024/02/11 08:05:10;;;;;;;38.42;23.20;;;;;;;5.20;100.00;98415.32;1713443;83;25590;-50
2024/02/11 08:07:35;;;;;;;34.48;21.35;;;;;;;5.27;100.00;98414.05;1713134;83;28357;-53
2024/02/11 08:10:09;;;;;;;43.17;23.05;;;;;;;5.29;100.00;98410.50;1713390;83;25390;-51
2024/02/11 08:12:36;;;;;;;41.92;23.38;;;;;;;5.34;100.00;98415.13;1712865;83;25686;-48
2024/02/11 08:15:04;;;;;;;47.20;27.22;;;;;;;5.40;100.00;98413.86;1710840;83;26603;-49
2024/02/11 08:17:33;;;;;;;51.13;30.82;;;;;;;5.46;100.00;98416.36;1711016;83;25610;-50
2024/02/11 08:19:59;;;;;;;44.08;25.48;;;;;;;5.49;100.00;98414.39;1710988;83;28077;-49
2024/02/11 08:22:25;;;;;;;41.73;23.87;;;;;;;5.51;100.00;98414.28;1710918;83;25987;-49
2024/02/11 08:24:55;;;;;;;46.37;24.35;;;;;;;5.56;100.00;98407.97;1710968;83;25586;-49
2024/02/11 08:27:24;;;;;;;40.80;23.95;;;;;;;5.60;100.00;98415.06;1710880;83;25624;-51
2024/02/11 08:29:52;;;;;;;42.73;24.30;;;;;;;5.64;100.00;98412.52;1710913;83;25641;-53
2024/02/11 08:32:19;;;;;;;39.13;23.38;;;;;;;5.69;100.00;98412.34;1710953;83;26830;-49
2024/02/11 08:34:46;;;;;;;44.70;25.02;;;;;;;5.74;100.00;98409.47;1710958;83;25536;-49
2024/02/11 08:37:13;;;;;;;38.45;24.02;;;;;;;5.82;100.00;98413.21;1711013;83;25552;-52
2024/02/11 08:39:41;;;;;;;41.58;22.67;;;;;;;5.86;100.00;98411.47;1711066;83;25985;-49
2024/02/11 08:42:08;;;;;;;40.78;24.40;;;;;;;5.89;100.00;98412.17;1710991;83;25575;-50
2024/02/11 08:44:39;;;;;;;44.63;25.52;;;;;;;5.93;100.00;98410.41;1711007;83;27352;-52
2024/02/11 08:47:08;;;;;;;42.23;24.98;;;;;;;6.00;100.00;98413.18;1710890;83;25548;-52
2024/02/11 08:49:33;;;;;;;39.40;25.52;;;;;;;6.05;100.00;98417.02;1710184;83;25502;-50
2024/02/11 08:51:59;;;;;;;39.23;25.50;;;;;;;6.10;100.00;98420.86;1711028;83;25664;-50
2024/02/11 08:54:26;;;;;;;41.05;27.00;;;;;;;6.13;100.00;98412.12;1711065;83;25608;-51
2024/02/11 08:56:55;;;;;;;57.85;37.05;;;;;;;6.20;100.00;98416.45;1710937;83;27655;-48
2024/02/11 08:59:22;;;;;;;44.67;26.87;;;;;;;6.25;100.00;98422.98;1710964;83;25490;-49
2024/02/11 09:01:52;;;;;;;41.28;26.02;;;;;;;6.34;100.00;98417.55;1710976;83;25608;-49
2024/02/11 09:04:21;;;;;;;41.73;26.45;;;;;;;6.41;100.00;98411.66;1710918;83;25605;-49
2024/02/11 09:06:50;;;;;;;38.60;25.02;;;;;;;6.44;100.00;98412.36;1711112;83;25391;-49
2024/02/11 09:09:25;;;;;;;43.85;25.62;;;;;;;6.49;100.00;98412.16;1710963;83;27200;-51
2024/02/11 09:11:50;;;;;;;44.90;26.27;;;;;;;6.57;100.00;98411.84;1710683;83;25798;-48
2024/02/11 09:14:16;;;;;;;42.85;26.60;;;;;;;6.60;100.00;98409.86;1712460;83;25446;-49
2024/02/11 09:16:46;;;;;;;40.70;25.88;;;;;;;6.65;100.00;98410.44;1713196;83;25983;-47
2024/02/11 09:19:14;;;;;;;43.38;26.25;;;;;;;6.69;100.00;98410.56;1713204;83;25599;-47
2024/02/11 09:21:41;;;;;;;37.08;23.80;;;;;;;6.76;100.00;98410.03;1713320;83;27165;-47
2024/02/11 09:24:10;;;;;;;41.35;25.43;;;;;;;6.81;100.00;98407.14;1713255;83;25710;-47
2024/02/11 09:26:37;;;;;;;43.13;25.92;;;;;;;6.84;100.00;98412.64;1713181;83;25474;-47
2024/02/11 09:29:07;;;;;;;39.63;25.17;;;;;;;6.88;100.00;98406.85;1713077;83;25961;-48
2024/02/11 09:31:40;;;;;;;36.45;23.27;;;;;;;6.92;100.00;98400.26;1712491;83;25415;-47
2024/02/11 09:34:06;;;;;;;41.05;25.23;;;;;;;6.95;100.00;98400.95;1713252;83;27708;-47
2024/02/11 09:36:34;;;;;;;35.95;23.92;;;;;;;6.98;100.00;98397.61;1713116;83;25562;-47
2024/02/11 09:39:03;;;;;;;37.90;25.82;;;;;;;7.04;100.00;98396.83;1713171;83;25592;-49
2024/02/11 09:41:34;;;;;;;42.35;22.93;;;;;;;7.07;100.00;98395.61;1713083;83;25618;-49
2024/02/11 09:44:04;;;;;;;41.83;22.50;;;;;;;7.14;100.00;98395.63;1713204;83;25445;-50
2024/02/11 09:46:37;;;;;;;37.17;23.00;;;;;;;7.17;100.00;98393.60;1713250;83;28368;-50
2024/02/11 09:49:15;;;;;;;32.53;20.37;;;;;;;7.22;100.00;98391.50;1713098;83;25374;-51
2024/02/11 09:51:48;;;;;;;30.65;20.35;;;;;;;7.27;100.00;98388.60;1712640;83;25702;-50
2024/02/11 09:54:19;;;;;;;32.20;19.82;;;;;;;7.32;100.00;98388.95;1713141;83;26685;-50
2024/02/11 09:56:45;;;;;;;35.63;21.75;;;;;;;7.40;100.00;98383.23;1703179;83;25688;-53
2024/02/11 09:59:13;;;;;;;34.53;21.17;;;;;;;7.46;100.00;98392.67;1713135;83;27662;-50
2024/02/11 10:01:41;;;;;;;32.55;20.35;;;;;;;7.50;100.00;98381.45;1713098;83;25454;-52
2024/02/11 10:04:10;;;;;;;33.95;20.80;;;;;;;7.56;100.00;98384.70;1713169;83;25533;-51
2024/02/11 10:06:44;;;;;;;30.08;19.62;;;;;;;7.60;100.00;98388.31;1713216;83;25667;-50
2024/02/11 10:09:14;;;;;;;34.70;22.05;;;;;;;7.62;100.00;98381.46;1713188;83;25598;-49
2024/02/11 10:11:42;;;;;;;;;;;;;;;7.67;100.00;98379.89;1715725;83;27344;-50
2024/02/11 10:14:13;;;;;;;35.25;20.20;;;;;;;7.74;100.00;98379.91;1712962;83;25702;-51
2024/02/11 10:16:43;;;;;;;35.78;20.90;;;;;;;7.80;100.00;98377.22;1713188;83;25403;-48
2024/02/11 10:19:11;;;;;;;31.45;20.60;;;;;;;7.83;100.00;98377.33;1713257;83;25606;-48
2024/02/11 10:21:38;;;;;;;34.78;21.97;;;;;;;7.86;100.00;98359.70;1713287;83;25460;-49
2024/02/11 10:24:07;;;;;;;29.20;19.07;;;;;;;7.92;100.00;98372.40;1713166;83;27236;-52
2024/02/11 10:26:35;;;;;;;28.60;17.55;;;;;;;7.95;100.00;98366.31;1713226;82;25611;-52
2024/02/11 10:29:05;;;;;;;29.80;19.10;;;;;;;7.97;100.00;98364.09;1713179;83;27379;-52
2024/02/11 10:31:37;;;;;;;33.23;20.70;;;;;;;7.97;100.00;98368.13;1713078;83;25933;-51
2024/02/11 10:34:13;;;;;;;38.90;20.72;;;;;;;7.98;100.00;98365.64;1713193;83;25462;-53
2024/02/11 10:36:37;;;;;;;33.15;18.32;;;;;;;7.98;100.00;98355.66;1713139;82;27235;-50
2024/02/11 10:39:05;;;;;;;28.12;18.00;;;;;;;7.98;100.00;98357.00;1713130;83;25532;-54
2024/02/11 10:41:37;;;;;;;26.97;18.17;;;;;;;7.99;100.00;98350.50;1713121;83;25766;-51
2024/02/11 10:44:04;;;;;;;27.75;18.07;;;;;;;7.99;100.00;98349.73;1712892;82;25939;-50
2024/02/11 10:46:41;;;;;;;28.25;18.32;;;;;;;7.98;100.00;98350.27;1713119;83;25550;-50
2024/02/11 10:49:07;;;;;;;35.45;18.52;;;;;;;7.97;100.00;98340.64;1712873;83;27702;-52
2024/02/11 10:51:41;;;;;;;28.20;18.77;;;;;;;8.01;100.00;98350.17;1712792;83;25986;-53
2024/02/11 10:54:14;;;;;;;29.98;19.67;;;;;;;8.01;100.00;98339.39;1712806;83;25593;-50
2024/02/11 10:56:38;;;;;;;25.82;18.15;;;;;;;8.02;100.00;98340.98;1712498;82;25755;-50
2024/02/11 10:59:13;;;;;;;31.62;19.05;;;;;;;8.02;100.00;98345.02;1712849;83;25650;-52
2024/02/11 11:01:41;;;;;;;26.95;18.00;;;;;;;8.02;100.00;98337.72;1712778;83;27325;-53
2024/02/11 11:04:13;;;;;;;36.85;19.35;;;;;;;8.02;100.00;98332.33;1712863;83;25580;-50
2024/02/11 11:06:44;;;;;;;29.55;17.77;;;;;;;8.03;100.00;98333.11;1713278;82;25578;-48
2024/02/11 11:09:15;;;;;;;27.95;17.98;;;;;;;8.06;100.00;98333.78;1713153;83;25708;-51
2024/02/11 11:11:44;;;;;;;49.83;30.70;;;;;;;8.06;100.00;98320.31;1713285;83;25660;-49
2024/02/11 11:14:12;;;;;;;38.02;25.30;;;;;;;8.12;100.00;98319.51;1713055;82;27215;-50
2024/02/11 11:16:41;;;;;;;31.35;18.42;;;;;;;8.13;100.00;98316.48;1713172;83;25635;-49
2024/02/11 11:19:17;;;;;;;29.45;17.62;;;;;;;8.18;100.00;98324.31;1713074;83;25641;-51
2024/02/11 11:21:55;;;;;;;32.70;20.57;;;;;;;8.23;100.00;98316.58;1713119;83;25645;-48
2024/02/11 11:24:25;;;;;;;31.23;21.23;;;;;;;8.28;100.00;98314.98;1713126;83;25367;-50